Time;durP1;ratioP1;P1;durP2;ratioP2;P2;SDS_P1;SDS_P2;PMS_P1;PMS_P2;Temp;Humidity;BMP_temperature;BMP_pressure;BME280_temperature;BME280_humidity;BME280_pressure;Samples;Min_cycle;Max_cycle;Signal;HPM_P1;HPM_P2
2023/10/31 00:09:44;;;;;;;1999.90;999.90;;;;;;;9.10;100.00;96503.94;18609099;31;20488;-57
2023/10/31 00:19:47;;;;;;;1999.90;999.90;;;;;;;9.11;100.00;96512.81;18635502;31;20068;-57
2023/10/31 00:29:50;;;;;;;1999.90;999.90;;;;;;;9.16;100.00;96510.84;18634764;31;20056;-57
2023/10/31 00:39:52;;;;;;;1999.90;999.90;;;;;;;9.20;100.00;96529.19;18620013;31;20068;-57
2023/10/31 00:49:56;;;;;;;1999.90;999.90;;;;;;;9.13;100.00;96522.22;18626462;31;20052;-58
2023/10/31 00:59:58;;;;;;;1999.90;999.90;;;;;;;9.05;100.00;96517.47;18618768;31;20052;-57
2023/10/31 01:10:02;;;;;;;1999.90;999.90;;;;;;;9.06;100.00;96537.97;18631465;31;20044;-57
2023/10/31 01:20:06;;;;;;;1999.90;999.90;;;;;;;8.93;100.00;96533.25;18604326;31;20094;-57
2023/10/31 01:30:09;;;;;;;;;;;;;;;8.95;100.00;96542.66;18631508;31;20123;-57
2023/10/31 01:40:13;;;;;;;1999.90;999.90;;;;;;;9.00;100.00;96555.28;18631063;31;20370;-57
2023/10/31 01:50:17;;;;;;;1999.90;999.90;;;;;;;9.09;100.00;96568.94;18629384;31;20044;-57
2023/10/31 02:00:20;;;;;;;;;;;;;;;9.09;100.00;96575.12;18615090;31;20053;-57
2023/10/31 02:10:22;;;;;;;1999.90;999.90;;;;;;;9.03;100.00;96591.66;18629312;31;20023;-57
2023/10/31 02:20:25;;;;;;;1999.90;999.90;;;;;;;8.89;100.00;96605.00;18627658;31;20103;-57
2023/10/31 02:30:27;;;;;;;1999.90;999.90;;;;;;;8.81;100.00;96615.31;18627285;31;20103;-57
2023/10/31 02:40:30;;;;;;;1999.90;999.90;;;;;;;8.70;100.00;96632.69;18620279;31;20059;-57
2023/10/31 02:50:33;;;;;;;1999.90;999.90;;;;;;;8.61;100.00;96637.88;18626190;31;20104;-57
2023/10/31 03:00:35;;;;;;;1999.90;999.90;;;;;;;8.58;100.00;96634.94;18626120;31;20386;-57
2023/10/31 03:10:38;;;;;;;1999.90;999.90;;;;;;;8.57;100.00;96649.50;18611317;31;20049;-57
2023/10/31 03:20:45;;;;;;;1999.90;999.90;;;;;;;8.53;100.00;96661.94;18625131;31;20063;-57
2023/10/31 03:30:47;;;;;;;1999.90;999.90;;;;;;;8.55;100.00;96654.34;18634309;31;20052;-57
2023/10/31 03:40:50;;;;;;;1999.90;999.90;;;;;;;8.50;100.00;96652.50;18623456;31;20040;-57
2023/10/31 03:50:53;;;;;;;1999.90;999.90;;;;;;;8.35;100.00;96637.25;18570547;32;20057;-57
2023/10/31 04:00:55;;;;;;;1999.90;999.90;;;;;;;8.29;100.00;96662.59;18571147;31;20049;-57
2023/10/31 04:10:58;;;;;;;1999.90;999.90;;;;;;;8.26;100.00;96660.47;18569667;32;20087;-57
2023/10/31 04:21:00;;;;;;;1999.90;999.90;;;;;;;8.27;100.00;96667.47;18570294;31;20052;-57
2023/10/31 04:31:04;;;;;;;1999.90;999.90;;;;;;;8.36;100.00;96679.25;18568210;31;20479;-57
2023/10/31 04:41:09;;;;;;;1999.90;999.90;;;;;;;8.39;100.00;96680.59;18567737;32;20036;-57
2023/10/31 04:51:12;;;;;;;1999.90;999.90;;;;;;;8.51;100.00;96688.31;18631570;31;20100;-57
2023/10/31 05:01:16;;;;;;;1999.90;999.90;;;;;;;8.53;100.00;96697.75;18633041;31;20436;-57
2023/10/31 05:11:19;;;;;;;1999.90;999.90;;;;;;;8.64;100.00;96704.66;18632962;31;20067;-57
2023/10/31 05:21:23;;;;;;;1999.90;999.90;;;;;;;8.70;100.00;96718.09;18632297;31;20372;-57
2023/10/31 05:31:26;;;;;;;1999.90;999.90;;;;;;;8.76;100.00;96717.00;18616593;31;20040;-57
2023/10/31 05:41:29;;;;;;;1999.90;999.90;;;;;;;8.71;100.00;96725.91;18630712;31;20060;-57
2023/10/31 05:51:32;;;;;;;1999.90;999.90;;;;;;;8.73;100.00;96715.66;18629161;31;20049;-57
2023/10/31 06:01:35;;;;;;;1999.90;999.90;;;;;;;8.84;100.00;96713.69;18629137;31;20063;-57
2023/10/31 06:11:42;;;;;;;1999.90;999.90;;;;;;;8.85;100.00;96717.97;18629320;31;20053;-57
2023/10/31 06:21:45;;;;;;;1999.90;999.90;;;;;;;8.83;100.00;96722.84;18621276;31;20094;-57
2023/10/31 06:31:47;;;;;;;1999.90;999.90;;;;;;;8.87;100.00;96740.06;18613210;31;20040;-57
2023/10/31 06:41:50;;;;;;;1999.90;999.90;;;;;;;8.88;100.00;96757.03;18612654;31;20096;-56
2023/10/31 06:51:53;;;;;;;1999.90;999.90;;;;;;;8.95;100.00;96762.94;18626301;31;20428;-57
2023/10/31 07:01:55;;;;;;;1999.90;999.90;;;;;;;9.02;100.00;96766.12;18610897;31;20484;-57
2023/10/31 07:11:58;;;;;;;1999.90;999.90;;;;;;;9.05;100.00;96792.50;18610651;31;20372;-57
2023/10/31 07:22:09;;;;;;;1999.90;999.90;;;;;;;9.18;100.00;96790.25;18605319;31;20058;-57
2023/10/31 07:32:12;;;;;;;1999.90;999.90;;;;;;;9.34;100.00;96805.22;18624974;31;20088;-57
2023/10/31 07:42:15;;;;;;;1999.90;999.90;;;;;;;9.43;100.00;96821.63;18624591;31;20052;-57
2023/10/31 07:52:18;;;;;;;1999.90;999.90;;;;;;;9.41;100.00;96837.25;18624356;31;20052;-57
2023/10/31 08:02:21;;;;;;;1999.90;999.90;;;;;;;9.52;100.00;96835.28;18623982;31;20386;-57
2023/10/31 08:12:24;;;;;;;1999.90;999.90;;;;;;;9.65;100.00;96840.03;18620086;31;20061;-57
2023/10/31 08:22:27;;;;;;;1999.90;999.90;;;;;;;9.71;100.00;96849.69;18621438;31;20346;-57
2023/10/31 08:32:29;;;;;;;1999.90;999.90;;;;;;;9.89;100.00;96853.53;18635086;31;20048;-56
2023/10/31 08:42:32;;;;;;;1999.90;999.90;;;;;;;10.05;100.00;96862.31;18634013;31;20054;-57
2023/10/31 08:52:35;;;;;;;1999.90;999.90;;;;;;;10.27;100.00;96855.59;18619290;31;20049;-57
2023/10/31 09:02:37;;;;;;;1999.90;999.90;;;;;;;10.25;100.00;96857.75;18611535;31;20401;-57
2023/10/31 09:12:40;;;;;;;1999.90;999.90;;;;;;;10.61;100.00;96860.09;18632326;31;20368;-57
2023/10/31 09:22:43;;;;;;;1999.90;999.90;;;;;;;10.80;100.00;96854.69;18631138;31;20056;-57
2023/10/31 09:32:46;;;;;;;1999.90;999.90;;;;;;;11.01;100.00;96860.63;18631134;31;20052;-57
2023/10/31 09:42:50;;;;;;;1999.90;999.90;;;;;;;10.87;100.00;96852.44;18630406;31;20040;-57
2023/10/31 09:52:55;;;;;;;1999.90;999.90;;;;;;;11.18;100.00;96855.50;18602474;31;20060;-57
2023/10/31 10:02:59;;;;;;;1999.90;999.90;;;;;;;11.49;100.00;96860.41;18614829;31;20049;-57
2023/10/31 10:13:03;;;;;;;1999.90;999.90;;;;;;;11.62;100.00;96847.22;18628654;31;20060;-57
2023/10/31 10:23:06;;;;;;;1999.90;999.90;;;;;;;11.89;100.00;96857.31;18628202;31;20044;-57
2023/10/31 10:33:09;;;;;;;1999.90;999.90;;;;;;;12.15;100.00;96863.09;18627694;31;20474;-57
2023/10/31 10:43:23;;;;;;;1999.90;999.90;;;;;;;12.13;100.00;96873.44;18612000;31;20383;-57
2023/10/31 10:53:30;;;;;;;;;;;;;;;12.10;100.00;96882.16;18612555;31;20040;-57
2023/10/31 11:03:36;;;;;;;1999.90;999.90;;;;;;;12.16;100.00;96872.03;18627220;31;20323;-57
2023/10/31 11:13:41;;;;;;;1999.90;999.90;;;;;;;12.69;100.00;96859.88;18611473;31;20048;-57
2023/10/31 11:23:43;;;;;;;1999.90;999.90;;;;;;;12.63;100.00;96853.75;18625255;31;20060;-57
2023/10/31 11:33:47;;;;;;;1999.90;999.90;;;;;;;12.50;100.00;96863.50;18610885;31;20075;-57
2023/10/31 11:43:52;;;;;;;1999.90;999.90;;;;;;;12.53;100.00;96857.47;18624431;31;20059;-57
2023/10/31 11:53:56;;;;;;;1999.90;999.90;;;;;;;12.43;100.00;96865.00;18636479;31;20066;-57
2023/10/31 12:04:00;;;;;;;1999.90;999.90;;;;;;;12.53;100.00;96876.44;18636961;31;20044;-57
2023/10/31 12:14:06;;;;;;;1999.90;999.90;;;;;;;11.74;100.00;96912.53;18636155;31;20040;-57
2023/10/31 12:24:12;;;;;;;1999.90;999.90;;;;;;;12.07;100.00;96907.13;18621688;31;20048;-57
2023/10/31 12:34:17;;;;;;;1999.90;999.90;;;;;;;12.36;100.00;96925.88;18620696;31;20049;-57
2023/10/31 12:44:27;;;;;;;1999.90;999.90;;;;;;;12.49;100.00;96926.97;18627172;31;20041;-57
2023/10/31 12:54:35;;;;;;;1999.90;999.90;;;;;;;12.43;100.00;96921.94;18633889;31;20103;-57
2023/10/31 13:04:38;;;;;;;1999.90;999.90;;;;;;;12.57;100.00;96949.09;18619681;31;20062;-57
2023/10/31 13:14:41;;;;;;;1999.90;999.90;;;;;;;12.49;100.00;96945.94;18618658;31;20105;-57
2023/10/31 13:24:45;;;;;;;1999.90;999.90;;;;;;;12.86;100.00;96944.13;18631760;31;20103;-57
2023/10/31 13:34:51;;;;;;;1999.90;999.90;;;;;;;13.27;100.00;96960.69;18624920;31;20053;-57
2023/10/31 13:44:54;;;;;;;1999.90;999.90;;;;;;;13.26;100.00;96972.66;18624448;31;20044;-57
2023/10/31 13:54:57;;;;;;;1999.90;999.90;;;;;;;13.33;100.00;96978.47;18615438;31;20078;-57
2023/10/31 14:05:01;;;;;;;1999.90;999.90;;;;;;;13.29;100.00;96994.56;18614894;31;20048;-57
2023/10/31 14:15:05;;;;;;;1999.90;999.90;;;;;;;13.08;100.00;97009.66;18628677;31;20056;-56
2023/10/31 14:25:08;;;;;;;1999.90;999.90;;;;;;;12.57;100.00;97011.47;18627985;31;20100;-57
2023/10/31 14:35:12;;;;;;;1999.90;999.90;;;;;;;12.48;100.00;97033.00;18613211;31;20082;-57
2023/10/31 14:45:16;;;;;;;1999.90;999.90;;;;;;;12.61;100.00;97053.16;18626609;31;20058;-57
2023/10/31 14:55:20;;;;;;;1999.90;999.90;;;;;;;12.18;100.00;97079.31;18626853;31;20075;-56
2023/10/31 15:05:23;;;;;;;1999.90;999.90;;;;;;;12.12;100.00;97110.28;18626010;31;20155;-56
2023/10/31 15:15:27;;;;;;;1999.90;999.90;;;;;;;11.76;100.00;97124.31;18625432;31;20067;-57
2023/10/31 15:25:30;;;;;;;1999.90;999.90;;;;;;;11.42;100.00;97125.28;18605820;31;20059;-56
2023/10/31 15:35:34;;;;;;;1999.90;999.90;;;;;;;11.11;100.00;97149.94;18622802;31;20091;-57
2023/10/31 15:45:40;;;;;;;1999.90;999.90;;;;;;;11.08;100.00;97169.47;18624106;31;20484;-57
2023/10/31 15:55:44;;;;;;;1999.90;999.90;;;;;;;11.29;100.00;97199.03;18610196;31;20080;-57
2023/10/31 16:05:48;;;;;;;1999.90;999.90;;;;;;;10.81;100.00;97211.37;18623965;31;20341;-56
2023/10/31 16:15:51;;;;;;;1999.90;999.90;;;;;;;10.64;100.00;97232.59;18623701;31;20052;-56
2023/10/31 16:25:55;;;;;;;1999.90;999.90;;;;;;;10.61;100.00;97241.25;18608756;31;20032;-57
2023/10/31 16:35:58;;;;;;;1999.90;999.90;;;;;;;10.45;100.00;97244.03;18614894;31;20156;-56
2023/10/31 16:46:01;;;;;;;1999.90;999.90;;;;;;;10.38;100.00;97261.66;18619648;31;20479;-56
2023/10/31 16:56:05;;;;;;;1999.90;999.90;;;;;;;10.17;100.00;97281.44;18633193;31;20052;-56
2023/10/31 17:06:08;;;;;;;1999.90;999.90;;;;;;;10.07;100.00;97289.63;18633010;31;20116;-57
2023/10/31 17:16:14;;;;;;;1999.90;999.90;;;;;;;9.96;100.00;97304.22;18625931;31;20052;-56
2023/10/31 17:26:17;;;;;;;1999.90;999.90;;;;;;;9.97;100.00;97322.84;18617505;31;20529;-57
2023/10/31 17:36:22;;;;;;;1999.90;999.90;;;;;;;10.03;100.00;97334.47;18616186;31;20056;-57
2023/10/31 17:46:25;;;;;;;1999.90;999.90;;;;;;;9.80;100.00;97341.28;18629651;31;20032;-57
2023/10/31 17:56:28;;;;;;;1999.90;999.90;;;;;;;9.57;100.00;97345.34;18630234;31;20068;-56
2023/10/31 18:06:31;;;;;;;1999.90;999.90;;;;;;;9.47;100.00;97356.97;18610629;31;20045;-56
2023/10/31 18:16:37;;;;;;;1999.90;999.90;;;;;;;9.48;100.00;97372.06;18612663;31;20054;-56
2023/10/31 18:26:40;;;;;;;1999.90;999.90;;;;;;;9.28;100.00;97387.16;18628136;31;20441;-57
2023/10/31 18:36:43;;;;;;;1999.90;999.90;;;;;;;9.23;100.00;97392.53;18627518;31;20052;-56
2023/10/31 18:46:47;;;;;;;1999.90;999.90;;;;;;;9.08;100.00;97396.03;18612129;31;20066;-56
2023/10/31 18:56:56;;;;;;;1999.90;999.90;;;;;;;8.94;100.00;97397.62;18626962;31;20424;-56
2023/10/31 19:06:59;;;;;;;1999.90;999.90;;;;;;;8.93;100.00;97393.31;18625890;31;20428;-56
2023/10/31 19:17:02;;;;;;;1999.90;999.90;;;;;;;8.74;100.00;97392.97;18611293;31;20142;-56
2023/10/31 19:27:04;;;;;;;1999.90;999.90;;;;;;;8.79;100.00;97388.41;18610746;31;20416;-56
2023/10/31 19:37:08;;;;;;;1999.90;999.90;;;;;;;8.77;100.00;97395.97;18625008;31;20063;-56
2023/10/31 19:47:12;;;;;;;1999.90;999.90;;;;;;;8.65;100.00;97390.00;18624375;31;20116;-57
2023/10/31 19:57:16;;;;;;;1999.90;999.90;;;;;;;8.69;100.00;97385.69;18607814;31;20131;-56
2023/10/31 20:07:19;;;;;;;1999.90;999.90;;;;;;;8.62;100.00;97393.22;18622475;31;20040;-57
2023/10/31 20:17:22;;;;;;;1999.90;999.90;;;;;;;8.59;100.00;97399.94;18621882;31;20040;-56
2023/10/31 20:27:25;;;;;;;1999.90;999.90;;;;;;;8.57;100.00;97396.69;18635510;31;20436;-57
2023/10/31 20:37:28;;;;;;;1999.90;999.90;;;;;;;8.48;100.00;97403.66;18634981;31;20095;-57
2023/10/31 20:47:30;;;;;;;1999.90;999.90;;;;;;;8.35;100.00;97406.81;18619524;31;20037;-56
2023/10/31 20:57:33;;;;;;;1999.90;999.90;;;;;;;8.28;100.00;97380.13;18626999;31;20434;-56
2023/10/31 21:07:36;;;;;;;1999.90;999.90;;;;;;;8.21;100.00;97374.13;18618966;31;20083;-56
2023/10/31 21:17:38;;;;;;;1999.90;999.90;;;;;;;8.12;100.00;97373.81;18631969;31;20083;-56
2023/10/31 21:27:47;;;;;;;1999.90;999.90;;;;;;;8.03;100.00;97364.63;18631811;31;20120;-57
2023/10/31 21:37:51;;;;;;;1999.90;999.90;;;;;;;7.98;100.00;97368.09;18631509;31;20127;-56
2023/10/31 21:47:53;;;;;;;1999.90;999.90;;;;;;;7.77;100.00;97365.28;18630188;31;20059;-56
2023/10/31 21:57:56;;;;;;;1999.90;999.90;;;;;;;7.84;100.00;97359.69;18629889;31;20396;-57
2023/10/31 22:07:59;;;;;;;1999.90;999.90;;;;;;;7.83;100.00;97357.25;18615233;31;20059;-57
2023/10/31 22:18:01;;;;;;;1999.90;999.90;;;;;;;7.81;100.00;97365.56;18614267;31;20441;-56
2023/10/31 22:28:04;;;;;;;1999.90;999.90;;;;;;;7.83;100.00;97354.56;18613966;31;20084;-56
2023/10/31 22:38:06;;;;;;;1999.90;999.90;;;;;;;7.77;100.00;97341.06;18627567;31;20111;-57
2023/10/31 22:48:09;;;;;;;1999.90;999.90;;;;;;;7.56;100.00;97331.22;18626529;31;20049;-56
2023/10/31 22:58:11;;;;;;;1999.90;999.90;;;;;;;7.36;100.00;97332.72;18599085;31;20100;-56
2023/10/31 23:08:14;;;;;;;1999.90;999.90;;;;;;;7.21;100.00;97322.66;18626004;31;20067;-57
2023/10/31 23:18:16;;;;;;;1999.90;999.90;;;;;;;7.14;100.00;97332.81;18625574;31;20052;-56
2023/10/31 23:28:19;;;;;;;1999.90;999.90;;;;;;;6.94;100.00;97326.16;18625297;31;20048;-56
2023/10/31 23:38:21;;;;;;;1999.90;999.90;;;;;;;6.93;100.00;97329.12;18618553;31;20072;-55
2023/10/31 23:48:24;;;;;;;1999.90;999.90;;;;;;;6.77;100.00;97326.28;18634550;31;20074;-56
2023/10/31 23:58:26;;;;;;;1999.90;999.90;;;;;;;6.74;100.00;97321.44;18637715;31;20072;-56
